Aviation Digital Data Service (ADDS)

Output produced by METARs form (0557 UTC 18 January 2018)
found at http://www.aviationweather.gov/adds/metars/
 
METAR text: KCOU 180554Z AUTO 23008KT 10SM CLR M09/M13 A3043 RMK AO2 SLP321 T10941133 11078 21106 410501189 58017
Conditions at: KCOU (COLUMBIA , MO, US) observed 0554 UTC 18 January 2018
Temperature: -9.4°C (15°F)
Dewpoint: -13.3°C (8°F) [RH = 73%]
Pressure (altimeter): 30.43 inches Hg (1030.6 mb)
[Sea-level pressure: 1032.1 mb]
Winds: from the SW (230 degrees) at 9 MPH (8 knots; 4.2 m/s)
Visibility: 10 or more miles (16+ km)
Ceiling: at least 12,000 feet AGL
Clouds: sky clear below 12,000 feet AGL
Weather: automated observation with no human augmentation;
there may or may not be significant weather present at this time